sensor_id;sensor_type;location;lat;lon;timestamp;P1;P2;P0
62599;PMS7003;48671;48.922;2.346;2024-01-15T00:01:42;30.75;24.25;16.50
62599;PMS7003;48671;48.922;2.346;2024-01-15T00:04:17;23.50;18.75;9.75
62599;PMS7003;48671;48.922;2.346;2024-01-15T00:06:48;36.50;21.25;15.50
62599;PMS7003;48671;48.922;2.346;2024-01-15T00:09:14;37.00;25.00;16.50
62599;PMS7003;48671;48.922;2.346;2024-01-15T00:12:05;28.00;23.00;16.00
62599;PMS7003;48671;48.922;2.346;2024-01-15T00:14:31;28.00;20.50;15.00
62599;PMS7003;48671;48.922;2.346;2024-01-15T00:16:56;30.33;21.33;15.00
62599;PMS7003;48671;48.922;2.346;2024-01-15T00:19:22;29.75;24.50;16.50
62599;PMS7003;48671;48.922;2.346;2024-01-15T00:21:48;32.50;24.50;14.00
62599;PMS7003;48671;48.922;2.346;2024-01-15T00:24:14;27.00;26.00;15.25
62599;PMS7003;48671;48.922;2.346;2024-01-15T00:26:39;34.75;19.50;14.50
62599;PMS7003;48671;48.922;2.346;2024-01-15T00:29:06;34.00;27.00;13.50
62599;PMS7003;48671;48.922;2.346;2024-01-15T00:31:32;27.50;20.50;15.25
62599;PMS7003;48671;48.922;2.346;2024-01-15T00:33:57;27.67;22.00;15.67
62599;PMS7003;48671;48.922;2.346;2024-01-15T00:36:22;23.33;19.67;13.00
62599;PMS7003;48671;48.922;2.346;2024-01-15T00:38:48;19.50;14.00;10.50
62599;PMS7003;48671;48.922;2.346;2024-01-15T00:41:13;30.00;24.50;15.00
62599;PMS7003;48671;48.922;2.346;2024-01-15T00:43:39;20.50;17.00;12.25
62599;PMS7003;48671;48.922;2.346;2024-01-15T00:46:05;30.00;22.00;15.00
62599;PMS7003;48671;48.922;2.346;2024-01-15T00:48:30;30.00;23.50;14.50
62599;PMS7003;48671;48.922;2.346;2024-01-15T00:50:55;27.00;21.50;14.50
62599;PMS7003;48671;48.922;2.346;2024-01-15T00:53:21;25.33;21.00;14.33
62599;PMS7003;48671;48.922;2.346;2024-01-15T00:55:49;20.25;19.50;14.00
62599;PMS7003;48671;48.922;2.346;2024-01-15T00:58:14;29.00;20.33;14.33
62599;PMS7003;48671;48.922;2.346;2024-01-15T01:00:39;25.00;22.00;15.25
62599;PMS7003;48671;48.922;2.346;2024-01-15T01:03:05;28.50;21.25;14.00
62599;PMS7003;48671;48.922;2.346;2024-01-15T01:05:31;30.75;19.00;13.00
62599;PMS7003;48671;48.922;2.346;2024-01-15T01:07:56;28.00;21.33;15.00
62599;PMS7003;48671;48.922;2.346;2024-01-15T01:10:22;27.67;20.00;15.00
62599;PMS7003;48671;48.922;2.346;2024-01-15T01:12:47;31.67;25.33;15.00
62599;PMS7003;48671;48.922;2.346;2024-01-15T01:15:12;33.00;25.00;15.33
62599;PMS7003;48671;48.922;2.346;2024-01-15T01:17:37;16.75;16.75;13.50
62599;PMS7003;48671;48.922;2.346;2024-01-15T01:20:03;24.00;21.00;13.00
62599;PMS7003;48671;48.922;2.346;2024-01-15T01:22:31;29.75;24.25;15.25
62599;PMS7003;48671;48.922;2.346;2024-01-15T01:24:56;28.50;21.50;14.50
62599;PMS7003;48671;48.922;2.346;2024-01-15T01:27:21;21.00;16.00;9.67
62599;PMS7003;48671;48.922;2.346;2024-01-15T01:29:47;19.67;19.00;12.67
62599;PMS7003;48671;48.922;2.346;2024-01-15T01:32:12;28.00;21.00;15.67
62599;PMS7003;48671;48.922;2.346;2024-01-15T01:34:40;20.33;18.33;12.00
62599;PMS7003;48671;48.922;2.346;2024-01-15T01:37:09;23.00;20.00;15.00
62599;PMS7003;48671;48.922;2.346;2024-01-15T01:39:37;19.00;19.00;13.00
62599;PMS7003;48671;48.922;2.346;2024-01-15T01:42:02;30.00;18.33;12.00
62599;PMS7003;48671;48.922;2.346;2024-01-15T01:44:28;27.50;18.75;15.00
62599;PMS7003;48671;48.922;2.346;2024-01-15T01:46:53;30.00;20.33;14.33
62599;PMS7003;48671;48.922;2.346;2024-01-15T01:49:19;26.33;22.00;12.00
62599;PMS7003;48671;48.922;2.346;2024-01-15T01:51:44;36.00;25.00;16.25
62599;PMS7003;48671;48.922;2.346;2024-01-15T01:54:11;29.00;19.00;15.00
62599;PMS7003;48671;48.922;2.346;2024-01-15T01:56:38;26.75;22.50;13.00
62599;PMS7003;48671;48.922;2.346;2024-01-15T01:59:04;21.50;19.25;14.75
62599;PMS7003;48671;48.922;2.346;2024-01-15T02:01:31;24.75;21.25;12.25
62599;PMS7003;48671;48.922;2.346;2024-01-15T02:03:57;24.33;20.67;14.67
62599;PMS7003;48671;48.922;2.346;2024-01-15T02:06:23;30.25;21.25;12.75
62599;PMS7003;48671;48.922;2.346;2024-01-15T02:08:49;25.00;24.00;14.00
62599;PMS7003;48671;48.922;2.346;2024-01-15T02:11:15;26.00;24.25;15.00
62599;PMS7003;48671;48.922;2.346;2024-01-15T02:13:41;29.75;15.00;6.50
62599;PMS7003;48671;48.922;2.346;2024-01-15T02:16:06;34.00;23.50;15.00
62599;PMS7003;48671;48.922;2.346;2024-01-15T02:18:44;33.33;21.67;13.00
62599;PMS7003;48671;48.922;2.346;2024-01-15T02:21:10;22.00;12.25;11.00
62599;PMS7003;48671;48.922;2.346;2024-01-15T02:23:36;30.25;21.75;13.00
62599;PMS7003;48671;48.922;2.346;2024-01-15T02:26:02;31.75;15.75;10.50
62599;PMS7003;48671;48.922;2.346;2024-01-15T02:28:28;22.75;17.50;11.00
62599;PMS7003;48671;48.922;2.346;2024-01-15T02:30:54;26.25;19.00;13.50
62599;PMS7003;48671;48.922;2.346;2024-01-15T02:33:19;25.00;19.00;12.00
62599;PMS7003;48671;48.922;2.346;2024-01-15T02:35:45;34.00;20.00;14.50
62599;PMS7003;48671;48.922;2.346;2024-01-15T02:38:11;31.25;17.50;13.50
62599;PMS7003;48671;48.922;2.346;2024-01-15T02:40:37;29.50;22.25;14.00
62599;PMS7003;48671;48.922;2.346;2024-01-15T02:43:03;26.50;20.50;15.75
62599;PMS7003;48671;48.922;2.346;2024-01-15T02:45:29;29.00;21.00;13.00
62599;PMS7003;48671;48.922;2.346;2024-01-15T02:47:55;31.75;19.00;13.00
62599;PMS7003;48671;48.922;2.346;2024-01-15T02:50:21;28.75;22.50;15.00
62599;PMS7003;48671;48.922;2.346;2024-01-15T02:52:46;20.00;17.00;12.25
62599;PMS7003;48671;48.922;2.346;2024-01-15T02:55:11;16.50;13.75;8.50
62599;PMS7003;48671;48.922;2.346;2024-01-15T02:57:37;24.67;16.00;12.67
62599;PMS7003;48671;48.922;2.346;2024-01-15T03:00:02;25.00;18.67;13.00
62599;PMS7003;48671;48.922;2.346;2024-01-15T03:02:28;18.75;12.75;8.50
62599;PMS7003;48671;48.922;2.346;2024-01-15T03:04:56;17.50;13.50;10.00
62599;PMS7003;48671;48.922;2.346;2024-01-15T03:07:22;30.50;16.50;12.00
62599;PMS7003;48671;48.922;2.346;2024-01-15T03:09:47;27.33;17.33;12.00
62599;PMS7003;48671;48.922;2.346;2024-01-15T03:12:12;17.00;16.67;12.67
62599;PMS7003;48671;48.922;2.346;2024-01-15T03:14:38;26.00;17.25;12.00
62599;PMS7003;48671;48.922;2.346;2024-01-15T03:17:03;25.67;22.67;15.00
62599;PMS7003;48671;48.922;2.346;2024-01-15T03:19:28;22.75;19.00;12.00
62599;PMS7003;48671;48.922;2.346;2024-01-15T03:21:55;25.00;19.00;15.00
62599;PMS7003;48671;48.922;2.346;2024-01-15T03:24:20;20.50;19.00;12.50
62599;PMS7003;48671;48.922;2.346;2024-01-15T03:26:46;22.00;12.00;6.00
62599;PMS7003;48671;48.922;2.346;2024-01-15T03:29:11;25.00;18.67;12.67
62599;PMS7003;48671;48.922;2.346;2024-01-15T03:31:36;27.00;19.00;12.67
62599;PMS7003;48671;48.922;2.346;2024-01-15T03:34:02;20.33;18.00;11.33
62599;PMS7003;48671;48.922;2.346;2024-01-15T03:36:27;14.00;12.00;7.67
62599;PMS7003;48671;48.922;2.346;2024-01-15T03:38:52;16.00;9.33;4.00
62599;PMS7003;48671;48.922;2.346;2024-01-15T03:41:17;30.00;24.00;14.33
62599;PMS7003;48671;48.922;2.346;2024-01-15T03:43:43;24.50;21.25;14.50
62599;PMS7003;48671;48.922;2.346;2024-01-15T03:46:09;36.00;24.00;14.33
62599;PMS7003;48671;48.922;2.346;2024-01-15T03:48:34;22.50;19.00;12.25
62599;PMS7003;48671;48.922;2.346;2024-01-15T03:51:00;29.50;19.00;11.00
62599;PMS7003;48671;48.922;2.346;2024-01-15T03:53:25;26.00;17.50;12.50
62599;PMS7003;48671;48.922;2.346;2024-01-15T03:55:50;23.00;19.00;12.25
62599;PMS7003;48671;48.922;2.346;2024-01-15T03:58:17;18.00;13.25;9.50
62599;PMS7003;48671;48.922;2.346;2024-01-15T04:00:42;23.00;18.50;13.00
62599;PMS7003;48671;48.922;2.346;2024-01-15T04:03:08;16.50;16.25;9.50
62599;PMS7003;48671;48.922;2.346;2024-01-15T04:05:33;17.50;16.00;12.00
62599;PMS7003;48671;48.922;2.346;2024-01-15T04:07:58;18.67;13.67;9.67
62599;PMS7003;48671;48.922;2.346;2024-01-15T04:10:24;18.75;15.75;10.50
62599;PMS7003;48671;48.922;2.346;2024-01-15T04:12:49;24.33;17.33;12.67
62599;PMS7003;48671;48.922;2.346;2024-01-15T04:15:14;19.67;16.67;13.00
62599;PMS7003;48671;48.922;2.346;2024-01-15T04:17:40;15.67;13.00;10.00
62599;PMS7003;48671;48.922;2.346;2024-01-15T04:20:05;19.33;16.67;10.67
62599;PMS7003;48671;48.922;2.346;2024-01-15T04:22:31;25.00;20.75;13.00
62599;PMS7003;48671;48.922;2.346;2024-01-15T04:24:57;25.00;19.00;12.75
62599;PMS7003;48671;48.922;2.346;2024-01-15T04:27:22;19.75;16.00;11.00
62599;PMS7003;48671;48.922;2.346;2024-01-15T04:29:47;21.00;16.00;10.00
62599;PMS7003;48671;48.922;2.346;2024-01-15T04:32:13;20.00;16.00;10.00
62599;PMS7003;48671;48.922;2.346;2024-01-15T04:34:38;21.75;13.50;9.00
62599;PMS7003;48671;48.922;2.346;2024-01-15T04:37:03;22.33;14.33;9.00
62599;PMS7003;48671;48.922;2.346;2024-01-15T04:39:29;21.00;15.67;7.67
62599;PMS7003;48671;48.922;2.346;2024-01-15T04:41:54;26.00;14.75;7.50
62599;PMS7003;48671;48.922;2.346;2024-01-15T04:44:19;19.67;14.33;10.00
62599;PMS7003;48671;48.922;2.346;2024-01-15T04:46:45;21.67;18.00;11.33
62599;PMS7003;48671;48.922;2.346;2024-01-15T04:49:10;9.67;9.67;6.67
62599;PMS7003;48671;48.922;2.346;2024-01-15T04:51:36;24.75;15.00;8.50
62599;PMS7003;48671;48.922;2.346;2024-01-15T04:54:02;17.33;13.00;9.00
62599;PMS7003;48671;48.922;2.346;2024-01-15T04:56:27;19.75;17.00;10.00
62599;PMS7003;48671;48.922;2.346;2024-01-15T04:58:52;17.33;13.67;10.67
62599;PMS7003;48671;48.922;2.346;2024-01-15T05:01:18;18.00;15.00;10.00
62599;PMS7003;48671;48.922;2.346;2024-01-15T05:03:43;12.67;7.67;7.00
62599;PMS7003;48671;48.922;2.346;2024-01-15T05:06:08;14.50;11.75;9.00
62599;PMS7003;48671;48.922;2.346;2024-01-15T05:08:34;20.50;10.00;6.00
62599;PMS7003;48671;48.922;2.346;2024-01-15T05:10:59;22.00;21.00;12.75
62599;PMS7003;48671;48.922;2.346;2024-01-15T05:13:25;14.00;13.00;8.50
62599;PMS7003;48671;48.922;2.346;2024-01-15T05:15:50;23.50;17.50;11.00
62599;PMS7003;48671;48.922;2.346;2024-01-15T05:18:16;16.00;14.67;10.00
62599;PMS7003;48671;48.922;2.346;2024-01-15T05:20:41;17.75;12.50;10.00
62599;PMS7003;48671;48.922;2.346;2024-01-15T05:23:07;33.75;22.75;10.00
62599;PMS7003;48671;48.922;2.346;2024-01-15T05:25:32;24.50;13.50;9.00
62599;PMS7003;48671;48.922;2.346;2024-01-15T05:27:58;24.00;14.33;10.00
62599;PMS7003;48671;48.922;2.346;2024-01-15T05:30:23;21.33;15.00;9.33
62599;PMS7003;48671;48.922;2.346;2024-01-15T05:32:48;13.00;13.00;9.00
62599;PMS7003;48671;48.922;2.346;2024-01-15T05:35:14;18.50;15.00;9.50
62599;PMS7003;48671;48.922;2.346;2024-01-15T05:37:43;19.67;15.00;10.67
62599;PMS7003;48671;48.922;2.346;2024-01-15T05:40:10;21.25;18.00;11.00
62599;PMS7003;48671;48.922;2.346;2024-01-15T05:42:36;18.50;17.00;9.75
62599;PMS7003;48671;48.922;2.346;2024-01-15T05:45:01;20.33;16.67;9.00
62599;PMS7003;48671;48.922;2.346;2024-01-15T05:47:29;22.00;12.00;9.00
62599;PMS7003;48671;48.922;2.346;2024-01-15T05:49:54;21.50;17.50;12.00
62599;PMS7003;48671;48.922;2.346;2024-01-15T05:52:20;20.00;15.00;10.00
62599;PMS7003;48671;48.922;2.346;2024-01-15T05:54:46;23.50;12.50;9.00
62599;PMS7003;48671;48.922;2.346;2024-01-15T05:57:12;21.75;16.75;10.00
62599;PMS7003;48671;48.922;2.346;2024-01-15T05:59:37;23.33;19.33;10.67
62599;PMS7003;48671;48.922;2.346;2024-01-15T06:02:03;17.50;11.00;7.25
62599;PMS7003;48671;48.922;2.346;2024-01-15T06:04:28;21.25;18.00;11.00
62599;PMS7003;48671;48.922;2.346;2024-01-15T06:06:53;14.50;10.25;7.25
62599;PMS7003;48671;48.922;2.346;2024-01-15T06:09:19;25.33;14.67;10.67
62599;PMS7003;48671;48.922;2.346;2024-01-15T06:11:44;25.67;16.00;10.00
62599;PMS7003;48671;48.922;2.346;2024-01-15T06:14:09;24.67;11.33;4.00
62599;PMS7003;48671;48.922;2.346;2024-01-15T06:16:34;17.00;13.67;9.67
62599;PMS7003;48671;48.922;2.346;2024-01-15T06:19:00;27.00;18.00;12.00
62599;PMS7003;48671;48.922;2.346;2024-01-15T06:21:25;24.33;16.00;12.00
62599;PMS7003;48671;48.922;2.346;2024-01-15T06:23:50;17.00;15.00;10.00
62599;PMS7003;48671;48.922;2.346;2024-01-15T06:26:16;23.75;14.75;9.50
62599;PMS7003;48671;48.922;2.346;2024-01-15T06:28:41;16.00;14.33;9.00
62599;PMS7003;48671;48.922;2.346;2024-01-15T06:31:07;20.33;15.33;9.33
62599;PMS7003;48671;48.922;2.346;2024-01-15T06:33:32;16.75;11.00;8.00
62599;PMS7003;48671;48.922;2.346;2024-01-15T06:35:57;18.33;15.00;9.67
62599;PMS7003;48671;48.922;2.346;2024-01-15T06:38:23;16.00;12.00;7.67
62599;PMS7003;48671;48.922;2.346;2024-01-15T06:40:50;17.50;15.00;12.00
62599;PMS7003;48671;48.922;2.346;2024-01-15T06:43:16;11.25;11.25;9.00
62599;PMS7003;48671;48.922;2.346;2024-01-15T06:45:42;13.50;10.00;7.00
62599;PMS7003;48671;48.922;2.346;2024-01-15T06:48:08;19.25;13.50;10.25
62599;PMS7003;48671;48.922;2.346;2024-01-15T06:50:33;24.25;14.50;9.00
62599;PMS7003;48671;48.922;2.346;2024-01-15T06:52:59;14.25;11.00;7.00
62599;PMS7003;48671;48.922;2.346;2024-01-15T06:55:24;22.33;13.00;10.00
62599;PMS7003;48671;48.922;2.346;2024-01-15T06:57:50;22.25;14.50;10.00
62599;PMS7003;48671;48.922;2.346;2024-01-15T07:00:16;26.75;14.00;10.00
62599;PMS7003;48671;48.922;2.346;2024-01-15T07:02:41;23.00;18.75;10.00
62599;PMS7003;48671;48.922;2.346;2024-01-15T07:05:07;18.50;16.00;7.50
62599;PMS7003;48671;48.922;2.346;2024-01-15T07:07:32;25.00;15.00;9.00
62599;PMS7003;48671;48.922;2.346;2024-01-15T07:09:57;16.75;15.25;12.00
62599;PMS7003;48671;48.922;2.346;2024-01-15T07:12:23;16.00;13.67;9.33
62599;PMS7003;48671;48.922;2.346;2024-01-15T07:14:48;18.75;15.75;10.00
62599;PMS7003;48671;48.922;2.346;2024-01-15T07:17:14;19.50;14.50;9.50
62599;PMS7003;48671;48.922;2.346;2024-01-15T07:19:39;25.00;16.00;9.25
62599;PMS7003;48671;48.922;2.346;2024-01-15T07:22:04;22.00;12.00;7.00
62599;PMS7003;48671;48.922;2.346;2024-01-15T07:24:30;20.33;14.33;9.33
62599;PMS7003;48671;48.922;2.346;2024-01-15T07:26:55;12.25;9.25;3.50
62599;PMS7003;48671;48.922;2.346;2024-01-15T07:29:20;34.33;19.67;13.00
62599;PMS7003;48671;48.922;2.346;2024-01-15T07:31:52;22.00;15.67;11.33
62599;PMS7003;48671;48.922;2.346;2024-01-15T07:34:18;22.75;18.25;12.00
62599;PMS7003;48671;48.922;2.346;2024-01-15T07:36:44;23.50;15.75;10.50
62599;PMS7003;48671;48.922;2.346;2024-01-15T07:39:10;18.25;16.50;10.00
62599;PMS7003;48671;48.922;2.346;2024-01-15T07:41:36;24.00;16.00;10.50
62599;PMS7003;48671;48.922;2.346;2024-01-15T07:44:01;20.67;16.67;10.67
62599;PMS7003;48671;48.922;2.346;2024-01-15T07:46:27;26.25;21.75;15.00
62599;PMS7003;48671;48.922;2.346;2024-01-15T07:48:52;21.00;19.67;13.00
62599;PMS7003;48671;48.922;2.346;2024-01-15T07:51:21;28.00;19.25;14.50
62599;PMS7003;48671;48.922;2.346;2024-01-15T07:53:47;21.00;19.00;12.75
62599;PMS7003;48671;48.922;2.346;2024-01-15T07:56:12;26.00;19.67;12.67
62599;PMS7003;48671;48.922;2.346;2024-01-15T07:58:38;26.50;21.25;15.50
62599;PMS7003;48671;48.922;2.346;2024-01-15T08:01:03;35.75;24.75;16.00
62599;PMS7003;48671;48.922;2.346;2024-01-15T08:03:28;21.00;17.25;12.00
62599;PMS7003;48671;48.922;2.346;2024-01-15T08:05:54;23.33;20.33;13.00
62599;PMS7003;48671;48.922;2.346;2024-01-15T08:08:20;32.50;24.50;16.00
62599;PMS7003;48671;48.922;2.346;2024-01-15T08:10:49;29.25;17.00;13.00
62599;PMS7003;48671;48.922;2.346;2024-01-15T08:13:14;20.50;12.50;8.50
62599;PMS7003;48671;48.922;2.346;2024-01-15T08:15:40;24.00;18.50;13.00
62599;PMS7003;48671;48.922;2.346;2024-01-15T08:18:06;26.75;18.50;12.25
62599;PMS7003;48671;48.922;2.346;2024-01-15T08:20:31;31.50;22.50;15.00
62599;PMS7003;48671;48.922;2.346;2024-01-15T08:22:57;28.75;25.00;14.00
62599;PMS7003;48671;48.922;2.346;2024-01-15T08:25:22;27.25;20.00;15.25
62599;PMS7003;48671;48.922;2.346;2024-01-15T08:27:48;30.75;25.00;17.50
62599;PMS7003;48671;48.922;2.346;2024-01-15T08:30:13;34.50;18.00;10.50
62599;PMS7003;48671;48.922;2.346;2024-01-15T08:32:39;33.50;21.50;15.75
62599;PMS7003;48671;48.922;2.346;2024-01-15T08:35:07;23.00;18.25;12.25
62599;PMS7003;48671;48.922;2.346;2024-01-15T08:37:33;28.50;18.75;13.50
62599;PMS7003;48671;48.922;2.346;2024-01-15T08:39:58;30.50;23.00;15.00
62599;PMS7003;48671;48.922;2.346;2024-01-15T08:42:24;21.67;18.00;15.00
62599;PMS7003;48671;48.922;2.346;2024-01-15T08:44:49;30.00;22.75;16.00
62599;PMS7003;48671;48.922;2.346;2024-01-15T08:47:15;23.00;20.00;14.50
62599;PMS7003;48671;48.922;2.346;2024-01-15T08:49:41;25.50;21.75;13.50
62599;PMS7003;48671;48.922;2.346;2024-01-15T08:52:08;30.50;21.50;13.00
62599;PMS7003;48671;48.922;2.346;2024-01-15T08:54:34;34.25;24.00;17.00
62599;PMS7003;48671;48.922;2.346;2024-01-15T08:56:59;17.75;13.50;10.25
62599;PMS7003;48671;48.922;2.346;2024-01-15T08:59:24;33.50;21.75;12.75
62599;PMS7003;48671;48.922;2.346;2024-01-15T09:01:51;25.25;18.00;12.25
62599;PMS7003;48671;48.922;2.346;2024-01-15T09:04:17;24.25;24.00;15.75
62599;PMS7003;48671;48.922;2.346;2024-01-15T09:06:44;19.67;19.00;13.33
62599;PMS7003;48671;48.922;2.346;2024-01-15T09:09:11;21.50;19.25;14.50
62599;PMS7003;48671;48.922;2.346;2024-01-15T09:11:37;19.00;15.00;10.00
62599;PMS7003;48671;48.922;2.346;2024-01-15T09:14:02;31.00;16.00;15.00
62599;PMS7003;48671;48.922;2.346;2024-01-15T09:16:28;35.25;19.00;12.75
62599;PMS7003;48671;48.922;2.346;2024-01-15T09:18:53;16.00;11.33;7.00
62599;PMS7003;48671;48.922;2.346;2024-01-15T09:21:18;29.00;21.00;15.00
62599;PMS7003;48671;48.922;2.346;2024-01-15T09:23:45;21.25;20.00;13.50
62599;PMS7003;48671;48.922;2.346;2024-01-15T09:26:10;28.00;18.33;10.00
62599;PMS7003;48671;48.922;2.346;2024-01-15T09:28:35;23.00;18.00;12.00
62599;PMS7003;48671;48.922;2.346;2024-01-15T09:31:00;19.33;15.00;9.00
62599;PMS7003;48671;48.922;2.346;2024-01-15T09:33:26;26.33;14.33;9.67
62599;PMS7003;48671;48.922;2.346;2024-01-15T09:35:51;27.00;22.00;15.00
62599;PMS7003;48671;48.922;2.346;2024-01-15T09:38:16;22.33;20.67;13.67
62599;PMS7003;48671;48.922;2.346;2024-01-15T09:40:44;19.00;18.50;13.75
62599;PMS7003;48671;48.922;2.346;2024-01-15T09:43:11;18.75;15.25;8.75
62599;PMS7003;48671;48.922;2.346;2024-01-15T09:45:37;23.75;17.00;12.75
62599;PMS7003;48671;48.922;2.346;2024-01-15T09:48:04;27.25;23.25;16.00
62599;PMS7003;48671;48.922;2.346;2024-01-15T09:50:30;21.25;17.00;11.50
62599;PMS7003;48671;48.922;2.346;2024-01-15T09:52:55;19.67;19.00;14.00
62599;PMS7003;48671;48.922;2.346;2024-01-15T09:55:22;24.00;21.00;15.50
62599;PMS7003;48671;48.922;2.346;2024-01-15T09:57:48;23.75;19.25;12.50
62599;PMS7003;48671;48.922;2.346;2024-01-15T10:00:17;21.25;16.75;12.75
62599;PMS7003;48671;48.922;2.346;2024-01-15T10:02:43;20.00;18.50;13.25
62599;PMS7003;48671;48.922;2.346;2024-01-15T10:05:08;23.67;15.33;10.67
62599;PMS7003;48671;48.922;2.346;2024-01-15T10:07:34;23.25;18.50;11.00
62599;PMS7003;48671;48.922;2.346;2024-01-15T10:10:01;22.75;17.75;10.75
62599;PMS7003;48671;48.922;2.346;2024-01-15T10:12:28;15.75;12.25;8.00
62599;PMS7003;48671;48.922;2.346;2024-01-15T10:14:54;20.75;15.25;11.00
62599;PMS7003;48671;48.922;2.346;2024-01-15T10:17:20;13.75;11.00;8.00
62599;PMS7003;48671;48.922;2.346;2024-01-15T10:19:46;12.25;11.00;7.00
62599;PMS7003;48671;48.922;2.346;2024-01-15T10:22:13;14.50;13.00;8.00
62599;PMS7003;48671;48.922;2.346;2024-01-15T10:24:40;16.75;7.75;5.00
62599;PMS7003;48671;48.922;2.346;2024-01-15T10:27:06;17.25;14.50;8.25
62599;PMS7003;48671;48.922;2.346;2024-01-15T10:29:35;20.50;19.00;11.75
62599;PMS7003;48671;48.922;2.346;2024-01-15T10:32:01;23.00;20.00;14.75
62599;PMS7003;48671;48.922;2.346;2024-01-15T10:34:39;29.75;21.25;12.00
62599;PMS7003;48671;48.922;2.346;2024-01-15T10:37:09;14.25;13.50;10.00
62599;PMS7003;48671;48.922;2.346;2024-01-15T10:39:35;22.75;18.50;14.00
62599;PMS7003;48671;48.922;2.346;2024-01-15T10:42:01;21.00;16.00;9.50
62599;PMS7003;48671;48.922;2.346;2024-01-15T10:44:28;26.50;20.00;12.50
62599;PMS7003;48671;48.922;2.346;2024-01-15T10:46:54;16.25;8.25;7.25
62599;PMS7003;48671;48.922;2.346;2024-01-15T10:49:21;22.50;9.25;6.50
62599;PMS7003;48671;48.922;2.346;2024-01-15T10:51:49;11.00;7.00;5.00
62599;PMS7003;48671;48.922;2.346;2024-01-15T10:54:16;13.25;10.00;5.25
62599;PMS7003;48671;48.922;2.346;2024-01-15T10:56:42;10.50;3.50;2.00
62599;PMS7003;48671;48.922;2.346;2024-01-15T10:59:08;4.50;4.25;2.00
62599;PMS7003;48671;48.922;2.346;2024-01-15T11:01:36;7.50;5.50;4.25
62599;PMS7003;48671;48.922;2.346;2024-01-15T11:04:02;7.00;4.00;3.00
62599;PMS7003;48671;48.922;2.346;2024-01-15T11:06:27;7.25;4.50;2.00
62599;PMS7003;48671;48.922;2.346;2024-01-15T11:08:54;5.00;5.00;5.00
62599;PMS7003;48671;48.922;2.346;2024-01-15T11:11:20;5.00;5.00;4.00
62599;PMS7003;48671;48.922;2.346;2024-01-15T11:13:47;7.75;4.50;4.50
62599;PMS7003;48671;48.922;2.346;2024-01-15T11:16:15;7.00;4.50;2.00
62599;PMS7003;48671;48.922;2.346;2024-01-15T11:19:02;7.50;4.00;4.00
62599;PMS7003;48671;48.922;2.346;2024-01-15T11:21:27;3.00;1.75;1.00
62599;PMS7003;48671;48.922;2.346;2024-01-15T11:23:58;6.50;5.00;4.00
62599;PMS7003;48671;48.922;2.346;2024-01-15T11:26:46;11.00;8.00;4.75
62599;PMS7003;48671;48.922;2.346;2024-01-15T11:34:20;4.00;1.00;1.00
62599;PMS7003;48671;48.922;2.346;2024-01-15T11:37:06;2.50;2.00;2.00
62599;PMS7003;48671;48.922;2.346;2024-01-15T11:42:01;7.00;4.25;2.00
62599;PMS7003;48671;48.922;2.346;2024-01-15T11:44:28;3.25;1.00;1.00
62599;PMS7003;48671;48.922;2.346;2024-01-15T11:47:04;5.50;5.50;4.00
62599;PMS7003;48671;48.922;2.346;2024-01-15T11:52:21;2.00;2.00;1.00
62599;PMS7003;48671;48.922;2.346;2024-01-15T12:00:06;1.00;1.00;1.00
62599;PMS7003;48671;48.922;2.346;2024-01-15T12:02:33;4.00;1.50;1.00
62599;PMS7003;48671;48.922;2.346;2024-01-15T12:04:59;1.00;1.00;1.00
62599;PMS7003;48671;48.922;2.346;2024-01-15T12:07:24;2.00;2.00;1.00
62599;PMS7003;48671;48.922;2.346;2024-01-15T12:09:50;5.00;2.00;1.00
62599;PMS7003;48671;48.922;2.346;2024-01-15T12:12:18;5.50;2.00;2.00
62599;PMS7003;48671;48.922;2.346;2024-01-15T12:14:50;0.25;0.00;0.00
62599;PMS7003;48671;48.922;2.346;2024-01-15T12:17:15;5.00;1.00;0.00
62599;PMS7003;48671;48.922;2.346;2024-01-15T12:19:41;1.75;1.00;1.00
62599;PMS7003;48671;48.922;2.346;2024-01-15T12:22:06;1.00;0.50;0.25
62599;PMS7003;48671;48.922;2.346;2024-01-15T12:24:32;4.25;1.00;1.00
62599;PMS7003;48671;48.922;2.346;2024-01-15T12:26:57;3.33;1.00;0.67
62599;PMS7003;48671;48.922;2.346;2024-01-15T12:29:22;2.00;2.00;1.00
62599;PMS7003;48671;48.922;2.346;2024-01-15T12:31:48;1.00;1.00;1.00
62599;PMS7003;48671;48.922;2.346;2024-01-15T12:34:13;4.00;2.00;1.00
62599;PMS7003;48671;48.922;2.346;2024-01-15T12:36:39;6.50;5.00;3.50
62599;PMS7003;48671;48.922;2.346;2024-01-15T12:39:05;1.00;1.00;1.00
62599;PMS7003;48671;48.922;2.346;2024-01-15T12:41:33;0.75;0.75;0.25
62599;PMS7003;48671;48.922;2.346;2024-01-15T12:43:59;3.00;1.50;0.00
62599;PMS7003;48671;48.922;2.346;2024-01-15T12:46:25;0.00;0.00;0.00
62599;PMS7003;48671;48.922;2.346;2024-01-15T12:48:50;0.67;0.67;0.00
62599;PMS7003;48671;48.922;2.346;2024-01-15T12:51:15;4.00;1.00;1.00
62599;PMS7003;48671;48.922;2.346;2024-01-15T12:53:41;1.00;1.00;0.25
62599;PMS7003;48671;48.922;2.346;2024-01-15T12:56:06;0.00;0.00;0.00
62599;PMS7003;48671;48.922;2.346;2024-01-15T12:58:32;0.33;0.33;0.33
62599;PMS7003;48671;48.922;2.346;2024-01-15T13:00:57;1.00;1.00;1.00
62599;PMS7003;48671;48.922;2.346;2024-01-15T13:03:23;0.00;0.00;0.00
62599;PMS7003;48671;48.922;2.346;2024-01-15T13:05:48;2.00;1.00;0.00
62599;PMS7003;48671;48.922;2.346;2024-01-15T13:08:14;1.00;0.00;0.00
62599;PMS7003;48671;48.922;2.346;2024-01-15T13:10:40;1.75;1.75;1.25
62599;PMS7003;48671;48.922;2.346;2024-01-15T13:13:07;1.00;1.00;1.00
62599;PMS7003;48671;48.922;2.346;2024-01-15T13:15:32;4.25;2.00;1.00
62599;PMS7003;48671;48.922;2.346;2024-01-15T13:17:58;2.00;0.50;0.50
62599;PMS7003;48671;48.922;2.346;2024-01-15T13:20:23;0.00;0.00;0.00
62599;PMS7003;48671;48.922;2.346;2024-01-15T13:22:48;1.00;0.00;0.00
62599;PMS7003;48671;48.922;2.346;2024-01-15T13:25:14;0.25;0.25;0.00
62599;PMS7003;48671;48.922;2.346;2024-01-15T13:27:40;1.00;1.00;1.00
62599;PMS7003;48671;48.922;2.346;2024-01-15T13:30:06;2.00;2.00;1.00
62599;PMS7003;48671;48.922;2.346;2024-01-15T13:32:32;1.50;1.50;1.50
62599;PMS7003;48671;48.922;2.346;2024-01-15T13:34:59;15.00;5.00;2.00
62599;PMS7003;48671;48.922;2.346;2024-01-15T13:37:24;4.50;2.00;1.00
62599;PMS7003;48671;48.922;2.346;2024-01-15T13:39:50;4.75;1.00;1.00
62599;PMS7003;48671;48.922;2.346;2024-01-15T13:42:19;1.00;0.00;0.00
62599;PMS7003;48671;48.922;2.346;2024-01-15T13:44:46;0.75;0.75;0.00
62599;PMS7003;48671;48.922;2.346;2024-01-15T13:47:12;6.00;1.50;0.25
62599;PMS7003;48671;48.922;2.346;2024-01-15T13:49:38;0.75;0.25;0.00
62599;PMS7003;48671;48.922;2.346;2024-01-15T13:52:04;1.00;0.75;0.25
62599;PMS7003;48671;48.922;2.346;2024-01-15T13:54:29;0.50;0.50;0.50
62599;PMS7003;48671;48.922;2.346;2024-01-15T13:56:55;0.75;0.75;0.75
62599;PMS7003;48671;48.922;2.346;2024-01-15T13:59:20;1.00;1.00;0.00
62599;PMS7003;48671;48.922;2.346;2024-01-15T14:01:46;4.00;1.67;1.00
62599;PMS7003;48671;48.922;2.346;2024-01-15T14:04:12;4.00;1.00;1.00
62599;PMS7003;48671;48.922;2.346;2024-01-15T14:06:37;2.50;1.75;0.75